createdAt,value
2022-08-05T00:00:03.795Z,69.05
2022-08-05T00:02:51.683Z,68.96
2022-08-05T00:06:05.646Z,68.95
2022-08-05T00:08:41.746Z,69.25
2022-08-05T00:11:30.255Z,68.87
2022-08-05T00:14:19.034Z,68.78
2022-08-05T00:17:03.133Z,69.13
2022-08-05T00:20:02.248Z,69.26
2022-08-05T00:22:57.359Z,68.84
2022-08-05T00:25:46.029Z,68.96
2022-08-05T00:28:30.319Z,68.41
2022-08-05T00:31:16.769Z,68.64
2022-08-05T00:34:54.969Z,68.56
2022-08-05T00:37:24.813Z,68.13
2022-08-05T00:40:11.639Z,68.22
2022-08-05T00:42:55.832Z,68.42
2022-08-05T00:45:43.936Z,68.04
2022-08-05T00:48:31.433Z,67.68
2022-08-05T00:51:50.713Z,67.47
2022-08-05T00:54:20.461Z,67.13
2022-08-05T00:57:06.370Z,66.47
2022-08-05T00:59:50.280Z,66.77
2022-08-05T01:02:34.675Z,66.54
2022-08-05T01:05:18.487Z,65.97
2022-08-05T01:08:41.291Z,66.41
2022-08-05T01:11:11.876Z,66.62
2022-08-05T01:14:08.899Z,67.34
2022-08-05T01:16:56.351Z,67.93
2022-08-05T01:20:01.292Z,67.54
2022-08-05T01:23:13.587Z,67.80
2022-08-05T01:26:26.299Z,67.73
2022-08-05T01:29:18.002Z,67.87
2022-08-05T01:32:12.562Z,67.68
2022-08-05T01:34:59.947Z,68.24
2022-08-05T01:37:47.700Z,68.66
2022-08-05T01:40:34.190Z,68.86
2022-08-05T01:43:22.303Z,69.48
2022-08-05T01:46:16.374Z,69.08
2022-08-05T01:49:03.066Z,69.41
2022-08-05T01:52:17.676Z,69.05
2022-08-05T01:55:04.807Z,68.49
2022-08-05T01:58:11.158Z,68.53
2022-08-05T02:00:59.273Z,68.34
2022-08-05T02:03:48.065Z,68.83
2022-08-05T02:06:37.493Z,69.55
2022-08-05T02:09:22.522Z,69.03
2022-08-05T02:12:13.692Z,69.91
2022-08-05T02:15:05.441Z,69.57
2022-08-05T02:18:28.245Z,69.87
2022-08-05T02:21:06.167Z,69.38
2022-08-05T02:24:08.095Z,69.32
2022-08-05T02:26:55.637Z,68.90
2022-08-05T02:29:58.749Z,68.55
2022-08-05T02:32:48.119Z,68.96
2022-08-05T02:35:37.838Z,68.71
2022-08-05T02:38:35.237Z,68.13
2022-08-05T02:41:22.906Z,68.31
2022-08-05T02:44:13.379Z,68.12
2022-08-05T02:47:00.737Z,68.03
2022-08-05T02:49:47.381Z,67.84
2022-08-05T02:52:32.920Z,67.93
2022-08-05T02:55:54.028Z,67.50
2022-08-05T02:58:26.667Z,67.95
2022-08-05T03:01:15.338Z,67.98
2022-08-05T03:04:08.850Z,67.77
2022-08-05T03:06:59.607Z,67.58
2022-08-05T03:09:51.670Z,67.48
2022-08-05T03:12:38.901Z,67.75
2022-08-05T03:15:23.973Z,68.45
2022-08-05T03:18:08.372Z,68.33
2022-08-05T03:20:53.207Z,68.10
2022-08-05T03:23:42.355Z,67.87
2022-08-05T03:26:32.024Z,67.19
2022-08-05T03:29:18.167Z,67.30
2022-08-05T03:32:02.351Z,66.85
2022-08-05T03:34:51.127Z,67.13
2022-08-05T03:37:46.325Z,66.77
2022-08-05T03:40:32.232Z,65.83
2022-08-05T03:44:09.203Z,65.70
2022-08-05T03:46:22.893Z,65.63
2022-08-05T03:49:13.345Z,65.82
2022-08-05T03:52:38.841Z,65.67
2022-08-05T03:56:04.041Z,65.49
2022-08-05T03:58:20.376Z,65.24
2022-08-05T04:01:15.502Z,64.64
2022-08-05T04:04:10.697Z,64.31
2022-08-05T04:06:56.002Z,64.24
2022-08-05T04:09:53.724Z,64.06
2022-08-05T04:15:24.357Z,63.79
2022-08-05T04:18:09.800Z,63.53
2022-08-05T04:20:58.432Z,62.82
2022-08-05T04:24:05.396Z,63.36
2022-08-05T04:26:47.460Z,63.26
2022-08-05T04:29:31.287Z,62.89
2022-08-05T04:32:30.859Z,62.55
2022-08-05T04:35:17.540Z,62.48
2022-08-05T04:38:06.734Z,62.38
2022-08-05T04:40:51.055Z,61.85
2022-08-05T04:43:34.883Z,61.40
2022-08-05T04:46:28.200Z,62.42
2022-08-05T04:49:14.921Z,61.71
2022-08-05T04:52:00.414Z,60.99
2022-08-05T04:54:46.058Z,61.26
2022-08-05T04:57:30.090Z,61.62
2022-08-05T05:00:23.667Z,61.09
2022-08-05T05:03:09.135Z,61.17
2022-08-05T05:06:35.842Z,60.79
2022-08-05T05:08:56.768Z,60.49
2022-08-05T05:11:55.693Z,61.08
2022-08-05T05:14:49.104Z,60.77
2022-08-05T05:17:56.314Z,60.46
2022-08-05T05:20:41.484Z,59.54
2022-08-05T05:23:39.358Z,59.04
2022-08-05T05:26:33.899Z,59.29
2022-08-05T05:29:20.955Z,58.81
2022-08-05T05:32:06.906Z,58.50
2022-08-05T05:34:56.464Z,57.85
2022-08-05T05:38:00.322Z,57.19
2022-08-05T05:40:49.670Z,56.71
2022-08-05T05:43:57.873Z,56.71
2022-08-05T05:46:40.638Z,56.83
2022-08-05T05:49:27.777Z,55.72
2022-08-05T05:52:26.393Z,55.73
2022-08-05T05:55:16.675Z,55.70
2022-08-05T05:58:01.944Z,56.28
2022-08-05T06:00:48.284Z,54.96
2022-08-05T06:04:00.310Z,55.04
2022-08-05T06:06:38.829Z,55.44
2022-08-05T06:09:49.201Z,54.31
2022-08-05T06:12:29.593Z,53.86
2022-08-05T06:15:23.625Z,53.98
2022-08-05T06:18:08.238Z,53.59
2022-08-05T06:20:54.655Z,53.01
2022-08-05T06:23:44.056Z,52.79
2022-08-05T06:26:28.316Z,52.00
2022-08-05T06:29:25.185Z,51.44
2022-08-05T06:32:28.684Z,51.13
2022-08-05T06:35:21.862Z,50.36
2022-08-05T06:38:18.162Z,50.19
2022-08-05T06:41:20.195Z,49.45
2022-08-05T06:44:06.588Z,50.10
2022-08-05T06:46:51.215Z,49.70
2022-08-05T06:50:01.371Z,50.42
2022-08-05T06:52:40.557Z,49.88
2022-08-05T06:55:27.268Z,49.82
2022-08-05T06:58:20.391Z,49.23
2022-08-05T07:01:15.711Z,48.99
2022-08-05T07:04:05.477Z,48.83
2022-08-05T07:06:50.383Z,47.84
2022-08-05T07:09:37.468Z,47.65
2022-08-05T07:12:49.104Z,47.63
2022-08-05T07:16:00.895Z,46.65
2022-08-05T07:18:48.880Z,46.85
2022-08-05T07:21:59.463Z,46.32
2022-08-05T07:24:44.058Z,45.79
2022-08-05T07:27:57.638Z,46.23
2022-08-05T07:30:43.259Z,45.67
2022-08-05T07:33:36.707Z,45.64
2022-08-05T07:36:23.380Z,45.10
2022-08-05T07:39:24.395Z,44.84
2022-08-05T07:42:16.158Z,44.31
2022-08-05T07:45:01.866Z,44.62
2022-08-05T07:47:48.560Z,44.27
2022-08-05T07:50:39.774Z,43.31
2022-08-05T07:53:26.841Z,43.46
2022-08-05T07:57:02.821Z,42.71
2022-08-05T07:59:38.295Z,42.40
2022-08-05T08:02:31.279Z,41.36
2022-08-05T08:05:33.258Z,41.98
2022-08-05T08:08:23.897Z,41.73
2022-08-05T08:11:10.054Z,41.48
2022-08-05T08:14:00.637Z,41.67
2022-08-05T08:16:51.131Z,42.88
2022-08-05T08:20:44.495Z,42.88
2022-08-05T08:22:42.544Z,41.56
2022-08-05T08:25:58.918Z,41.37
2022-08-05T08:28:35.802Z,41.03
2022-08-05T08:31:21.493Z,40.14
2022-08-05T08:34:07.763Z,40.62
2022-08-05T08:36:57.788Z,40.82
2022-08-05T08:39:49.415Z,40.29
2022-08-05T08:42:50.502Z,39.96
2022-08-05T08:45:38.853Z,39.32
2022-08-05T08:49:02.903Z,38.89
2022-08-05T08:52:06.027Z,39.48
2022-08-05T08:54:38.477Z,39.74
2022-08-05T08:57:42.023Z,37.97
2022-08-05T09:00:31.696Z,36.87
2022-08-05T09:03:19.078Z,36.25
2022-08-05T09:06:08.867Z,37.55
2022-08-05T09:08:55.541Z,38.19
2022-08-05T09:11:51.276Z,38.31
2022-08-05T09:14:58.634Z,38.73
2022-08-05T09:17:49.690Z,38.26
2022-08-05T09:20:36.534Z,37.54
2022-08-05T09:23:22.357Z,37.54
2022-08-05T09:26:09.292Z,37.56
2022-08-05T09:29:00.248Z,36.05
2022-08-05T09:32:41.773Z,35.67
2022-08-05T09:34:55.051Z,37.97
2022-08-05T09:38:17.182Z,38.58
2022-08-05T09:40:52.015Z,37.97
2022-08-05T09:43:40.473Z,38.01
2022-08-05T09:46:30.447Z,38.15
2022-08-05T09:49:40.394Z,36.88
2022-08-05T09:52:30.286Z,36.79
2022-08-05T09:55:59.247Z,37.19
2022-08-05T09:58:18.487Z,36.05
2022-08-05T10:01:13.581Z,35.70
2022-08-05T10:04:03.594Z,36.05
2022-08-05T10:06:58.812Z,35.95
2022-08-05T10:10:13.839Z,34.52
2022-08-05T10:13:02.685Z,36.05
2022-08-05T10:15:54.052Z,35.87
2022-08-05T10:18:39.344Z,34.83
2022-08-05T10:21:26.094Z,34.64
2022-08-05T10:24:20.436Z,34.58
2022-08-05T10:27:09.207Z,33.34
2022-08-05T10:30:41.155Z,32.99
2022-08-05T10:33:02.095Z,33.89
2022-08-05T10:35:50.856Z,35.26
2022-08-05T10:38:48.062Z,35.67
2022-08-05T10:41:46.598Z,38.84
2022-08-05T10:44:33.507Z,41.41
2022-08-05T10:47:26.127Z,41.62
2022-08-05T10:50:31.936Z,42.75
2022-08-05T10:53:35.372Z,42.21
2022-08-05T10:56:26.182Z,42.38
2022-08-05T10:59:12.492Z,42.36
2022-08-05T11:02:38.183Z,40.43
2022-08-05T11:05:20.095Z,42.11
2022-08-05T11:08:33.832Z,44.67
2022-08-05T11:11:44.479Z,46.72
2022-08-05T11:15:01.114Z,46.15
2022-08-05T11:18:09.533Z,44.45
2022-08-05T11:20:51.116Z,41.53
2022-08-05T11:24:03.207Z,42.11
2022-08-05T11:26:43.349Z,42.42
2022-08-05T11:29:41.591Z,43.40
2022-08-05T11:32:27.498Z,46.24
2022-08-05T11:36:04.419Z,46.66
2022-08-05T11:38:54.812Z,44.72
2022-08-05T11:42:01.965Z,43.36
2022-08-05T11:44:54.106Z,41.85
2022-08-05T11:47:49.763Z,40.24
2022-08-05T11:50:39.630Z,41.25
2022-08-05T11:53:23.618Z,44.01
2022-08-05T11:56:08.069Z,43.19
2022-08-05T11:58:56.889Z,43.04
2022-08-05T12:01:53.974Z,43.90
2022-08-05T12:04:43.094Z,46.06
2022-08-05T12:08:07.485Z,44.28
2022-08-05T12:10:45.584Z,45.11
2022-08-05T12:13:48.851Z,43.90
2022-08-05T12:16:38.287Z,42.82
2022-08-05T12:20:25.692Z,41.67
2022-08-05T12:22:30.739Z,41.13
2022-08-05T12:25:16.611Z,41.22
2022-08-05T12:28:02.350Z,41.60
2022-08-05T12:30:46.510Z,42.32
2022-08-05T12:33:36.304Z,43.88
2022-08-05T12:36:23.001Z,43.02
2022-08-05T12:39:09.821Z,44.37
2022-08-05T12:41:59.289Z,42.79
2022-08-05T12:44:44.621Z,41.57
2022-08-05T12:47:30.627Z,42.46
2022-08-05T12:50:17.705Z,42.60
2022-08-05T12:53:03.789Z,43.37
2022-08-05T12:55:47.989Z,43.36
2022-08-05T12:58:38.469Z,44.00
2022-08-05T13:02:02.062Z,45.40
2022-08-05T13:04:52.600Z,44.34
2022-08-05T13:07:59.252Z,41.77
2022-08-05T13:10:50.472Z,41.58
2022-08-05T13:14:05.835Z,41.79
2022-08-05T13:16:47.417Z,42.55
2022-08-05T13:19:51.950Z,44.94
2022-08-05T13:22:37.254Z,47.10
2022-08-05T13:25:51.612Z,46.56
2022-08-05T13:28:28.396Z,44.71
2022-08-05T13:31:14.419Z,44.67
2022-08-05T13:34:21.749Z,45.15
2022-08-05T13:37:02.401Z,44.40
2022-08-05T13:40:13.859Z,43.12
2022-08-05T13:42:55.622Z,42.72
2022-08-05T13:45:43.209Z,39.72
2022-08-05T13:48:58.296Z,40.12
2022-08-05T13:51:36.365Z,40.68
2022-08-05T13:54:26.440Z,41.38
2022-08-05T13:57:15.075Z,40.56
2022-08-05T14:00:01.925Z,40.99
2022-08-05T14:02:53.201Z,42.56
2022-08-05T14:06:04.921Z,41.26
2022-08-05T14:08:41.029Z,41.33
2022-08-05T14:11:24.874Z,42.39
2022-08-05T14:14:15.362Z,42.38
2022-08-05T14:17:26.874Z,40.59
2022-08-05T14:20:18.386Z,40.51
2022-08-05T14:23:02.570Z,38.69
2022-08-05T14:25:53.004Z,40.81
2022-08-05T14:28:38.154Z,40.34
2022-08-05T14:32:03.209Z,39.64
2022-08-05T14:34:41.676Z,39.63
2022-08-05T14:37:47.342Z,40.99
2022-08-05T14:40:30.560Z,41.18
2022-08-05T14:43:14.383Z,43.33
2022-08-05T14:45:58.277Z,43.84
2022-08-05T14:48:42.038Z,43.15
2022-08-05T14:51:30.900Z,41.93
2022-08-05T14:54:28.599Z,41.98
2022-08-05T14:57:14.450Z,42.37
2022-08-05T14:59:58.302Z,41.44
2022-08-05T15:02:42.871Z,42.03
2022-08-05T15:05:29.684Z,43.32
2022-08-05T15:08:17.936Z,43.88
2022-08-05T15:11:19.555Z,43.63
2022-08-05T15:14:03.464Z,43.73
2022-08-05T15:16:47.927Z,42.18
2022-08-05T15:19:32.149Z,41.71
2022-08-05T15:22:16.143Z,42.25
2022-08-05T15:25:11.634Z,41.61
2022-08-05T15:27:58.226Z,42.05
2022-08-05T15:30:43.270Z,40.67
2022-08-05T15:34:04.917Z,40.29
2022-08-05T15:36:31.620Z,42.20
2022-08-05T15:40:41.570Z,42.44
2022-08-05T15:42:53.478Z,42.70
2022-08-05T15:45:38.181Z,42.39
2022-08-05T15:48:22.815Z,41.18
2022-08-05T15:51:07.355Z,40.78
2022-08-05T15:53:51.954Z,41.14
2022-08-05T15:56:35.875Z,40.38
2022-08-05T15:59:22.373Z,40.08
2022-08-05T16:02:09.506Z,41.48
2022-08-05T16:04:58.548Z,40.85
2022-08-05T16:07:46.295Z,41.01
2022-08-05T16:10:33.010Z,42.00
2022-08-05T16:13:23.745Z,43.85
2022-08-05T16:16:10.720Z,46.19
2022-08-05T16:18:55.263Z,47.93
2022-08-05T16:22:01.154Z,46.77
2022-08-05T16:24:51.581Z,44.93
2022-08-05T16:28:00.960Z,45.32
2022-08-05T16:30:41.604Z,46.46
2022-08-05T16:33:28.706Z,47.76
2022-08-05T16:36:26.544Z,46.76
2022-08-05T16:39:10.631Z,49.20
2022-08-05T16:42:14.901Z,49.56
2022-08-05T16:44:59.333Z,49.97
2022-08-05T16:47:53.492Z,50.93
2022-08-05T16:50:42.809Z,52.22
2022-08-05T16:54:03.203Z,52.52
2022-08-05T16:56:33.743Z,51.33
2022-08-05T16:59:17.795Z,49.92
2022-08-05T17:02:01.826Z,51.39
2022-08-05T17:04:45.968Z,51.37
2022-08-05T17:07:39.329Z,50.80
2022-08-05T17:10:35.658Z,50.19
2022-08-05T17:13:22.063Z,51.09
2022-08-05T17:16:32.577Z,51.29
2022-08-05T17:19:17.565Z,52.01
2022-08-05T17:22:01.439Z,51.87
2022-08-05T17:24:57.421Z,53.01
2022-08-05T17:27:42.460Z,52.98
2022-08-05T17:30:28.810Z,52.17
2022-08-05T17:33:13.673Z,51.90
2022-08-05T17:36:07.946Z,51.83
2022-08-05T17:38:54.252Z,52.31
2022-08-05T17:42:19.821Z,52.72
2022-08-05T17:44:50.284Z,53.11
2022-08-05T17:47:35.256Z,52.92
2022-08-05T17:50:29.005Z,53.90
2022-08-05T17:53:14.223Z,54.57
2022-08-05T17:55:59.882Z,55.43
2022-08-05T17:58:48.100Z,56.26
2022-08-05T18:01:42.656Z,57.22
2022-08-05T18:04:33.464Z,58.49
2022-08-05T18:07:41.321Z,59.56
2022-08-05T18:10:25.977Z,59.31
2022-08-05T18:13:12.546Z,58.95
2022-08-05T18:15:58.212Z,59.39
2022-08-05T18:18:48.582Z,59.67
2022-08-05T18:22:08.370Z,60.13
2022-08-05T18:24:37.862Z,60.69
2022-08-05T18:27:23.503Z,61.10
2022-08-05T18:30:08.398Z,60.98
2022-08-05T18:33:00.015Z,60.98
2022-08-05T18:35:59.927Z,60.92
2022-08-05T18:38:48.647Z,60.82
2022-08-05T18:41:53.616Z,61.43
2022-08-05T18:44:55.554Z,61.61
2022-08-05T18:47:40.594Z,62.28
2022-08-05T18:50:46.273Z,62.32
2022-08-05T18:53:34.771Z,62.29
2022-08-05T18:56:26.996Z,64.13
2022-08-05T18:59:43.895Z,64.45
2022-08-05T19:02:27.867Z,64.43
2022-08-05T19:06:05.762Z,64.76
2022-08-05T19:08:18.785Z,64.78
2022-08-05T19:11:05.062Z,65.18
2022-08-05T19:14:01.825Z,65.50
2022-08-05T19:16:54.968Z,65.98
2022-08-05T19:19:39.037Z,66.78
2022-08-05T19:22:30.707Z,67.32
2022-08-05T19:25:29.608Z,67.45
2022-08-05T19:28:14.632Z,67.72
2022-08-05T19:30:59.251Z,67.35
2022-08-05T19:33:48.146Z,67.95
2022-08-05T19:36:41.015Z,68.31
2022-08-05T19:39:28.225Z,68.40
2022-08-05T19:42:26.220Z,68.67
2022-08-05T19:45:17.868Z,68.95
2022-08-05T19:48:02.460Z,68.83
2022-08-05T19:50:46.439Z,69.44
2022-08-05T19:54:04.162Z,69.00
2022-08-05T19:56:34.995Z,69.96
2022-08-05T19:59:53.980Z,70.03
2022-08-05T20:02:24.338Z,70.42
2022-08-05T20:05:16.415Z,70.37
2022-08-05T20:08:09.891Z,70.44
2022-08-05T20:10:55.206Z,71.08
2022-08-05T20:13:58.111Z,70.89
2022-08-05T20:16:44.474Z,71.25
2022-08-05T20:19:36.482Z,71.50
2022-08-05T20:22:26.640Z,71.87
2022-08-05T20:25:11.336Z,72.61
2022-08-05T20:27:55.556Z,72.69
2022-08-05T20:30:41.638Z,73.19
2022-08-05T20:33:26.962Z,73.02
2022-08-05T20:36:16.475Z,73.20
2022-08-05T20:39:03.242Z,72.82
2022-08-05T20:41:48.255Z,72.56
2022-08-05T20:44:33.247Z,72.58
2022-08-05T20:47:31.698Z,71.26
2022-08-05T20:50:17.608Z,71.32
2022-08-05T20:53:01.964Z,70.88
2022-08-05T20:55:56.130Z,71.00
2022-08-05T20:58:51.953Z,72.15
2022-08-05T21:01:38.609Z,71.47
2022-08-05T21:04:22.860Z,71.04
2022-08-05T21:07:12.475Z,70.22
2022-08-05T21:09:56.612Z,69.22
2022-08-05T21:12:41.687Z,68.99
2022-08-05T21:15:50.924Z,69.21
2022-08-05T21:18:35.877Z,69.29
2022-08-05T21:21:19.887Z,70.07
2022-08-05T21:24:12.842Z,70.24
2022-08-05T21:26:58.393Z,69.82
2022-08-05T21:29:42.808Z,68.65
2022-08-05T21:32:32.514Z,68.55
2022-08-05T21:35:18.436Z,68.35
2022-08-05T21:38:14.058Z,66.69
2022-08-05T21:40:59.292Z,66.78
2022-08-05T21:43:44.162Z,63.96
2022-08-05T21:46:45.763Z,64.48
2022-08-05T21:50:00.163Z,64.03
2022-08-05T21:52:36.689Z,63.94
2022-08-05T21:56:04.765Z,64.37
2022-08-05T21:58:36.685Z,64.05
2022-08-05T22:01:26.342Z,64.79
2022-08-05T22:04:13.357Z,64.06
2022-08-05T22:06:57.468Z,63.67
2022-08-05T22:09:46.008Z,63.82
2022-08-05T22:12:32.175Z,63.94
2022-08-05T22:16:00.723Z,64.41
2022-08-05T22:18:24.894Z,64.27
2022-08-05T22:21:19.452Z,63.61
2022-08-05T22:24:40.328Z,64.72
2022-08-05T22:28:09.703Z,64.67
2022-08-05T22:30:56.072Z,65.06
2022-08-05T22:33:57.255Z,65.67
2022-08-05T22:36:44.703Z,65.86
2022-08-05T22:39:33.861Z,65.44
2022-08-05T22:42:25.401Z,65.88
2022-08-05T22:45:12.553Z,65.32
2022-08-05T22:47:58.905Z,64.77
2022-08-05T22:50:46.147Z,64.47
2022-08-05T22:53:40.025Z,63.42
2022-08-05T22:56:30.239Z,63.61
2022-08-05T22:59:44.176Z,63.56
2022-08-05T23:02:28.838Z,63.25
2022-08-05T23:05:15.383Z,62.20
2022-08-05T23:07:59.329Z,61.96
2022-08-05T23:10:44.093Z,61.35
2022-08-05T23:13:28.133Z,60.82
2022-08-05T23:16:13.740Z,60.40
2022-08-05T23:19:10.565Z,60.29
2022-08-05T23:22:09.272Z,60.03
2022-08-05T23:24:56.817Z,59.93
2022-08-05T23:27:57.900Z,60.47
2022-08-05T23:30:53.694Z,60.64
2022-08-05T23:34:04.700Z,59.61
2022-08-05T23:36:44.867Z,59.90
2022-08-05T23:39:32.400Z,60.64
2022-08-05T23:42:36.361Z,60.25
2022-08-05T23:45:20.587Z,60.06
2022-08-05T23:48:07.912Z,59.24
2022-08-05T23:50:53.301Z,58.37
2022-08-05T23:53:47.052Z,57.91
2022-08-05T23:56:32.420Z,57.17
2022-08-05T23:59:16.939Z,56.66
